Inicio METAR Ruta Wind Satelite

Informe Meteorológico

Fecha: 2020/11/30 15:18:00 Local
2020.11.30 20:18 UTC


Estado: VIGENTE
Operación:VFR
Cali / Alfonso Bonilla Aragon, Colombia (SKCL) 03-33N 076-23W 969M
Nov 30, 2020 - 03:00 PM EST / 2020.11.30 2000 UTC
Wind: from the ESE (110 degrees) at 7 MPH (6 KT) (direction variable):0
Visibility: greater than 7 mile(s):0
Sky conditions: partly cloudy
Temperature: 82 F (28 C)
Dew Point: 66 F (19 C)
Relative Humidity: 58%
Pressure (altimeter): 29.88 in. Hg (1011 hPa)
ob: SKCL 302000Z 11006KT 050V160 9999 FEW015 SCT120 28/19 A2988 NOSIG
cycle: 20

SKCL 301900Z 13005KT 060V210 9999 FEW015 SCT120 28/19 A2992NOSIG
SKCL 301800Z 18005KT 130V240 9999 FEW015 SCT120 28/18 A2997NOSIG
SKCL 301600Z 24004KT 9999 FEW010 SCT120 25/20 A3007 NOSIG
SKCL 301400Z 24004KT 230V310 9999 -RA SCT010 BKN070 20/19 A3010NOSIG
SKCL 301300Z VRB02KT 6000 -DZ BKN007 SCT070 19/19 A3010 BECMGFM1400 SCT007 BKN070

2020/11/30 18:42
TAF SKCL 301630Z 3018/0118 30008KT 9999 SCT020 SCT130
TEMPO 3018/3021 8000 VCSH SCT018TCU PROB30
TEMPO 3021/3023 7000 DZRA
BECMG 3023/0101 VRB03KT SCT015 BKN100
TEMPO 0105/0107 8000 VCSH PROB40
TEMPO 0107/0111 6000 DZ
TEMPO 0111/0114 5000 BR TX29/3019Z TN18/0111Z